West Galveston, Texas
Current Conditions -  °F | °C
As of 1:52 AM on Saturday 29 Nov 2014 (Local Time) from KGLS Reporting Station
Clear Clear  
Wind Chill: 63°   Ceiling: Unl
Heat Index: 63°   Visibility: 10mi
Dew Point: 61°   Wind: 14mph
Humidity: 93%   Direction: 180°S
Pressure: 30.13"   Gusts: NA
Location:  29.2029°N, 94.9576°W
Report Text: KGLS 290752Z AUTO 18012KT 10SM CLR 17/16 A3013 RMK AO2 SLP203 T01720161
Loading
Personal Weather Stations






























Interactive Weather Map New forecast layout! Learn more

10-Day Weather Forecast

Advertisements
Track Severe Weather on mobile